sensor_id;sensor_type;location;lat;lon;timestamp;pressure;altitude;pressure_sealevel;temperature;humidity
63181;BME280;49273;37.772;-122.432;2022-11-30T00:01:10;100994.71;;;13.68;47.16
63181;BME280;49273;37.772;-122.432;2022-11-30T00:03:38;100992.86;;;13.69;47.63
63181;BME280;49273;37.772;-122.432;2022-11-30T00:06:08;100989.74;;;13.23;48.63
63181;BME280;49273;37.772;-122.432;2022-11-30T00:08:38;100992.90;;;13.30;48.48
63181;BME280;49273;37.772;-122.432;2022-11-30T00:11:10;100997.96;;;13.24;48.18
63181;BME280;49273;37.772;-122.432;2022-11-30T00:13:45;100993.80;;;13.14;48.96
63181;BME280;49273;37.772;-122.432;2022-11-30T00:16:14;100989.88;;;12.83;49.42
63181;BME280;49273;37.772;-122.432;2022-11-30T00:18:42;100995.01;;;12.93;49.34
63181;BME280;49273;37.772;-122.432;2022-11-30T00:21:12;100993.50;;;12.88;50.08
63181;BME280;49273;37.772;-122.432;2022-11-30T00:23:42;100997.60;;;12.99;49.68
63181;BME280;49273;37.772;-122.432;2022-11-30T00:26:12;100995.09;;;13.02;49.94
63181;BME280;49273;37.772;-122.432;2022-11-30T00:28:41;100995.83;;;12.69;50.77
63181;BME280;49273;37.772;-122.432;2022-11-30T00:31:11;100998.34;;;12.72;50.69
63181;BME280;49273;37.772;-122.432;2022-11-30T00:33:40;101000.81;;;12.54;51.28
63181;BME280;49273;37.772;-122.432;2022-11-30T00:36:11;100996.46;;;12.48;52.13
63181;BME280;49273;37.772;-122.432;2022-11-30T00:38:40;100995.50;;;12.55;52.10
63181;BME280;49273;37.772;-122.432;2022-11-30T00:41:09;100998.09;;;12.49;52.53
63181;BME280;49273;37.772;-122.432;2022-11-30T00:43:37;100995.66;;;12.55;52.90
63181;BME280;49273;37.772;-122.432;2022-11-30T00:46:06;100997.13;;;12.28;54.08
63181;BME280;49273;37.772;-122.432;2022-11-30T00:48:34;100994.36;;;12.29;54.61
63181;BME280;49273;37.772;-122.432;2022-11-30T00:51:03;100995.09;;;12.30;54.47
63181;BME280;49273;37.772;-122.432;2022-11-30T00:53:31;100994.42;;;12.04;55.18
63181;BME280;49273;37.772;-122.432;2022-11-30T00:55:59;100995.10;;;12.08;55.32
63181;BME280;49273;37.772;-122.432;2022-11-30T00:58:27;100996.28;;;12.03;55.82
63181;BME280;49273;37.772;-122.432;2022-11-30T01:00:55;100995.76;;;12.10;55.84
63181;BME280;49273;37.772;-122.432;2022-11-30T01:03:23;100995.06;;;12.16;55.88
63181;BME280;49273;37.772;-122.432;2022-11-30T01:05:51;100994.17;;;12.03;56.56
63181;BME280;49273;37.772;-122.432;2022-11-30T01:08:19;100995.64;;;11.81;57.08
63181;BME280;49273;37.772;-122.432;2022-11-30T01:10:47;100993.82;;;11.84;57.10
63181;BME280;49273;37.772;-122.432;2022-11-30T01:13:15;100995.32;;;11.74;57.21
63181;BME280;49273;37.772;-122.432;2022-11-30T01:15:43;100996.70;;;11.83;56.86
63181;BME280;49273;37.772;-122.432;2022-11-30T01:18:11;101002.83;;;11.61;57.17
63181;BME280;49273;37.772;-122.432;2022-11-30T01:20:40;101004.56;;;11.57;57.26
63181;BME280;49273;37.772;-122.432;2022-11-30T01:23:09;101003.94;;;11.58;57.07
63181;BME280;49273;37.772;-122.432;2022-11-30T01:25:37;101002.81;;;11.64;56.86
63181;BME280;49273;37.772;-122.432;2022-11-30T01:28:07;101001.55;;;11.49;57.35
63181;BME280;49273;37.772;-122.432;2022-11-30T01:30:36;101001.87;;;11.57;57.00
63181;BME280;49273;37.772;-122.432;2022-11-30T01:33:04;100998.44;;;11.52;56.98
63181;BME280;49273;37.772;-122.432;2022-11-30T01:35:32;100998.73;;;11.54;56.84
63181;BME280;49273;37.772;-122.432;2022-11-30T01:38:00;100998.85;;;11.59;56.57
63181;BME280;49273;37.772;-122.432;2022-11-30T01:40:28;100997.34;;;11.60;56.80
63181;BME280;49273;37.772;-122.432;2022-11-30T01:42:56;100999.49;;;11.60;56.66
63181;BME280;49273;37.772;-122.432;2022-11-30T01:45:24;100999.30;;;11.53;56.49
63181;BME280;49273;37.772;-122.432;2022-11-30T01:47:55;101000.79;;;11.53;56.72
63181;BME280;49273;37.772;-122.432;2022-11-30T01:50:27;101002.65;;;11.51;56.52
63181;BME280;49273;37.772;-122.432;2022-11-30T01:52:57;101004.07;;;11.42;56.25
63181;BME280;49273;37.772;-122.432;2022-11-30T01:55:28;101001.29;;;11.65;56.09
63181;BME280;49273;37.772;-122.432;2022-11-30T01:58:02;101004.34;;;11.54;55.34
63181;BME280;49273;37.772;-122.432;2022-11-30T02:00:32;101000.60;;;11.64;55.10
63181;BME280;49273;37.772;-122.432;2022-11-30T02:03:03;101000.80;;;11.70;55.15
63181;BME280;49273;37.772;-122.432;2022-11-30T02:05:34;101002.05;;;11.61;55.30
63181;BME280;49273;37.772;-122.432;2022-11-30T02:08:04;101003.76;;;11.63;55.08
63181;BME280;49273;37.772;-122.432;2022-11-30T02:10:37;101005.48;;;11.43;55.71
63181;BME280;49273;37.772;-122.432;2022-11-30T02:13:29;101008.03;;;11.29;55.58
63181;BME280;49273;37.772;-122.432;2022-11-30T02:16:06;101009.24;;;11.36;55.39
63181;BME280;49273;37.772;-122.432;2022-11-30T02:18:45;101012.29;;;11.38;54.89
63181;BME280;49273;37.772;-122.432;2022-11-30T02:21:20;101014.26;;;11.41;55.16
63181;BME280;49273;37.772;-122.432;2022-11-30T02:24:19;101019.30;;;11.37;54.91
63181;BME280;49273;37.772;-122.432;2022-11-30T02:27:08;101021.21;;;11.35;54.78
63181;BME280;49273;37.772;-122.432;2022-11-30T02:29:40;101020.78;;;11.47;54.14
63181;BME280;49273;37.772;-122.432;2022-11-30T02:32:14;101019.96;;;11.50;53.53
63181;BME280;49273;37.772;-122.432;2022-11-30T02:34:46;101029.80;;;11.34;53.03
63181;BME280;49273;37.772;-122.432;2022-11-30T02:37:15;101023.74;;;11.50;53.24
63181;BME280;49273;37.772;-122.432;2022-11-30T02:39:44;101026.22;;;11.53;52.64
63181;BME280;49273;37.772;-122.432;2022-11-30T02:42:13;101033.57;;;11.53;52.84
63181;BME280;49273;37.772;-122.432;2022-11-30T02:44:44;101035.86;;;11.52;52.82
63181;BME280;49273;37.772;-122.432;2022-11-30T02:47:20;101039.33;;;11.36;52.78
63181;BME280;49273;37.772;-122.432;2022-11-30T02:49:55;101043.99;;;11.39;52.57
63181;BME280;49273;37.772;-122.432;2022-11-30T02:52:27;101044.21;;;11.34;52.50
63181;BME280;49273;37.772;-122.432;2022-11-30T02:54:59;101041.39;;;11.58;51.56
63181;BME280;49273;37.772;-122.432;2022-11-30T02:57:27;101040.13;;;11.60;51.84
63181;BME280;49273;37.772;-122.432;2022-11-30T02:59:55;101046.73;;;11.55;52.05
63181;BME280;49273;37.772;-122.432;2022-11-30T03:02:24;101045.31;;;11.55;52.20
63181;BME280;49273;37.772;-122.432;2022-11-30T03:04:52;101048.80;;;11.46;51.62
63181;BME280;49273;37.772;-122.432;2022-11-30T03:07:20;101047.76;;;11.58;51.52
63181;BME280;49273;37.772;-122.432;2022-11-30T03:09:48;101050.62;;;11.51;51.33
63181;BME280;49273;37.772;-122.432;2022-11-30T03:12:16;101051.57;;;11.50;51.57
63181;BME280;49273;37.772;-122.432;2022-11-30T03:14:44;101055.21;;;11.47;51.31
63181;BME280;49273;37.772;-122.432;2022-11-30T03:17:12;101054.73;;;11.49;51.02
63181;BME280;49273;37.772;-122.432;2022-11-30T03:19:40;101050.88;;;11.52;51.02
63181;BME280;49273;37.772;-122.432;2022-11-30T03:22:08;101049.86;;;11.50;50.91
63181;BME280;49273;37.772;-122.432;2022-11-30T03:24:36;101054.06;;;11.52;50.53
63181;BME280;49273;37.772;-122.432;2022-11-30T03:27:05;101057.76;;;11.52;50.65
63181;BME280;49273;37.772;-122.432;2022-11-30T03:29:33;101059.97;;;11.43;50.09
63181;BME280;49273;37.772;-122.432;2022-11-30T03:32:02;101064.16;;;11.50;49.61
63181;BME280;49273;37.772;-122.432;2022-11-30T03:34:30;101059.93;;;11.55;50.28
63181;BME280;49273;37.772;-122.432;2022-11-30T03:36:58;101058.88;;;11.56;50.43
63181;BME280;49273;37.772;-122.432;2022-11-30T03:39:27;101053.79;;;11.60;50.24
63181;BME280;49273;37.772;-122.432;2022-11-30T03:41:56;101058.65;;;11.61;50.24
63181;BME280;49273;37.772;-122.432;2022-11-30T03:44:24;101058.29;;;11.62;50.24
63181;BME280;49273;37.772;-122.432;2022-11-30T03:46:52;101059.73;;;11.57;50.63
63181;BME280;49273;37.772;-122.432;2022-11-30T03:49:20;101059.29;;;11.62;50.39
63181;BME280;49273;37.772;-122.432;2022-11-30T03:51:48;101059.85;;;11.54;50.76
63181;BME280;49273;37.772;-122.432;2022-11-30T03:54:16;101056.18;;;11.69;50.79
63181;BME280;49273;37.772;-122.432;2022-11-30T03:56:45;101056.58;;;11.68;50.66
63181;BME280;49273;37.772;-122.432;2022-11-30T03:59:14;101059.11;;;11.47;51.65
63181;BME280;49273;37.772;-122.432;2022-11-30T04:01:42;101059.86;;;11.53;51.47
63181;BME280;49273;37.772;-122.432;2022-11-30T04:04:10;101063.77;;;11.43;51.99
63181;BME280;49273;37.772;-122.432;2022-11-30T04:06:39;101060.99;;;11.52;52.00
63181;BME280;49273;37.772;-122.432;2022-11-30T04:09:08;101057.29;;;11.21;53.17
63181;BME280;49273;37.772;-122.432;2022-11-30T04:11:37;101055.20;;;11.10;53.65
63181;BME280;49273;37.772;-122.432;2022-11-30T04:14:05;101052.63;;;11.18;53.57
63181;BME280;49273;37.772;-122.432;2022-11-30T04:16:33;101054.70;;;11.35;53.29
63181;BME280;49273;37.772;-122.432;2022-11-30T04:19:01;101059.43;;;11.40;53.42
63181;BME280;49273;37.772;-122.432;2022-11-30T04:21:29;101061.16;;;11.47;53.56
63181;BME280;49273;37.772;-122.432;2022-11-30T04:23:57;101060.41;;;11.33;54.09
63181;BME280;49273;37.772;-122.432;2022-11-30T04:26:25;101065.25;;;11.46;54.15
63181;BME280;49273;37.772;-122.432;2022-11-30T04:28:53;101067.91;;;11.45;54.46
63181;BME280;49273;37.772;-122.432;2022-11-30T04:31:21;101066.86;;;11.34;54.81
63181;BME280;49273;37.772;-122.432;2022-11-30T04:33:52;101066.43;;;11.50;54.69
63181;BME280;49273;37.772;-122.432;2022-11-30T04:36:21;101070.10;;;11.37;55.09
63181;BME280;49273;37.772;-122.432;2022-11-30T04:38:49;101068.90;;;11.34;55.39
63181;BME280;49273;37.772;-122.432;2022-11-30T04:41:22;101071.56;;;11.25;55.95
63181;BME280;49273;37.772;-122.432;2022-11-30T04:43:50;101069.14;;;11.00;56.92
63181;BME280;49273;37.772;-122.432;2022-11-30T04:46:18;101067.55;;;10.97;57.35
63181;BME280;49273;37.772;-122.432;2022-11-30T04:48:46;101072.86;;;11.15;56.68
63181;BME280;49273;37.772;-122.432;2022-11-30T04:51:14;101077.56;;;11.28;56.69
63181;BME280;49273;37.772;-122.432;2022-11-30T04:53:42;101082.58;;;11.18;57.15
63181;BME280;49273;37.772;-122.432;2022-11-30T04:56:11;101081.49;;;11.12;57.42
63181;BME280;49273;37.772;-122.432;2022-11-30T04:58:39;101079.66;;;10.86;58.32
63181;BME280;49273;37.772;-122.432;2022-11-30T05:01:08;101084.66;;;11.13;57.46
63181;BME280;49273;37.772;-122.432;2022-11-30T05:03:36;101088.32;;;11.14;57.70
63181;BME280;49273;37.772;-122.432;2022-11-30T05:06:05;101088.64;;;11.12;57.88
63181;BME280;49273;37.772;-122.432;2022-11-30T05:08:32;101091.79;;;11.17;57.86
63181;BME280;49273;37.772;-122.432;2022-11-30T05:11:00;101088.87;;;11.17;57.93
63181;BME280;49273;37.772;-122.432;2022-11-30T05:13:29;101088.22;;;11.22;57.77
63181;BME280;49273;37.772;-122.432;2022-11-30T05:15:57;101087.56;;;11.19;57.78
63181;BME280;49273;37.772;-122.432;2022-11-30T05:18:25;101086.89;;;11.11;58.30
63181;BME280;49273;37.772;-122.432;2022-11-30T05:20:53;101086.45;;;11.23;57.90
63181;BME280;49273;37.772;-122.432;2022-11-30T05:23:21;101086.46;;;11.28;57.93
63181;BME280;49273;37.772;-122.432;2022-11-30T05:25:49;101085.34;;;11.20;58.02
63181;BME280;49273;37.772;-122.432;2022-11-30T05:28:18;101089.94;;;11.07;58.41
63181;BME280;49273;37.772;-122.432;2022-11-30T05:30:46;101087.23;;;11.11;58.48
63181;BME280;49273;37.772;-122.432;2022-11-30T05:33:14;101088.23;;;11.16;58.48
63181;BME280;49273;37.772;-122.432;2022-11-30T05:35:42;101087.62;;;11.08;58.93
63181;BME280;49273;37.772;-122.432;2022-11-30T05:38:10;101091.58;;;11.10;58.78
63181;BME280;49273;37.772;-122.432;2022-11-30T05:40:39;101096.51;;;11.23;58.42
63181;BME280;49273;37.772;-122.432;2022-11-30T05:43:07;101095.87;;;11.19;58.68
63181;BME280;49273;37.772;-122.432;2022-11-30T05:45:35;101099.91;;;11.12;58.85
63181;BME280;49273;37.772;-122.432;2022-11-30T05:48:03;101103.50;;;11.11;58.96
63181;BME280;49273;37.772;-122.432;2022-11-30T05:50:32;101105.17;;;11.04;59.12
63181;BME280;49273;37.772;-122.432;2022-11-30T05:53:00;101103.06;;;10.99;59.36
63181;BME280;49273;37.772;-122.432;2022-11-30T05:55:28;101104.68;;;10.92;59.71
63181;BME280;49273;37.772;-122.432;2022-11-30T05:57:56;101105.44;;;10.92;59.82
63181;BME280;49273;37.772;-122.432;2022-11-30T06:00:25;101105.40;;;10.91;59.95
63181;BME280;49273;37.772;-122.432;2022-11-30T06:02:55;101100.25;;;10.96;59.65
63181;BME280;49273;37.772;-122.432;2022-11-30T06:05:23;101103.28;;;11.08;59.33
63181;BME280;49273;37.772;-122.432;2022-11-30T06:07:52;101101.54;;;11.01;59.48
63181;BME280;49273;37.772;-122.432;2022-11-30T06:10:20;101100.98;;;10.92;59.74
63181;BME280;49273;37.772;-122.432;2022-11-30T06:12:48;101104.29;;;10.89;59.87
63181;BME280;49273;37.772;-122.432;2022-11-30T06:15:16;101104.12;;;10.83;60.17
63181;BME280;49273;37.772;-122.432;2022-11-30T06:17:44;101101.89;;;10.75;60.50
63181;BME280;49273;37.772;-122.432;2022-11-30T06:20:13;101106.11;;;10.88;60.32
63181;BME280;49273;37.772;-122.432;2022-11-30T06:22:44;101107.20;;;10.64;60.96
63181;BME280;49273;37.772;-122.432;2022-11-30T06:25:12;101107.79;;;10.74;60.73
63181;BME280;49273;37.772;-122.432;2022-11-30T06:27:40;101107.90;;;10.71;60.88
63181;BME280;49273;37.772;-122.432;2022-11-30T06:30:10;101102.83;;;10.59;61.37
63181;BME280;49273;37.772;-122.432;2022-11-30T06:32:38;101103.45;;;10.58;61.41
63181;BME280;49273;37.772;-122.432;2022-11-30T06:35:08;101101.49;;;10.54;61.67
63181;BME280;49273;37.772;-122.432;2022-11-30T06:37:36;101101.87;;;10.58;61.58
63181;BME280;49273;37.772;-122.432;2022-11-30T06:40:05;101106.06;;;10.66;61.21
63181;BME280;49273;37.772;-122.432;2022-11-30T06:42:35;101108.79;;;10.77;60.86
63181;BME280;49273;37.772;-122.432;2022-11-30T06:45:05;101109.46;;;10.80;60.76
63181;BME280;49273;37.772;-122.432;2022-11-30T06:47:33;101109.98;;;10.75;60.57
63181;BME280;49273;37.772;-122.432;2022-11-30T06:50:02;101109.22;;;10.71;60.51
63181;BME280;49273;37.772;-122.432;2022-11-30T06:52:31;101105.35;;;10.63;60.77
63181;BME280;49273;37.772;-122.432;2022-11-30T06:54:59;101105.03;;;10.66;60.86
63181;BME280;49273;37.772;-122.432;2022-11-30T06:57:27;101101.91;;;10.62;60.90
63181;BME280;49273;37.772;-122.432;2022-11-30T06:59:56;101104.39;;;10.64;60.70
63181;BME280;49273;37.772;-122.432;2022-11-30T07:02:24;101114.42;;;10.49;60.94
63181;BME280;49273;37.772;-122.432;2022-11-30T07:04:52;101116.98;;;10.50;61.13
63181;BME280;49273;37.772;-122.432;2022-11-30T07:07:20;101118.94;;;10.51;60.99
63181;BME280;49273;37.772;-122.432;2022-11-30T07:09:49;101116.19;;;10.45;61.34
63181;BME280;49273;37.772;-122.432;2022-11-30T07:12:18;101108.47;;;10.53;61.24
63181;BME280;49273;37.772;-122.432;2022-11-30T07:14:46;101106.53;;;10.51;61.27
63181;BME280;49273;37.772;-122.432;2022-11-30T07:17:13;101108.98;;;10.43;61.59
63181;BME280;49273;37.772;-122.432;2022-11-30T07:19:42;101114.15;;;10.55;61.06
63181;BME280;49273;37.772;-122.432;2022-11-30T07:22:10;101119.66;;;10.51;61.18
63181;BME280;49273;37.772;-122.432;2022-11-30T07:24:39;101120.35;;;10.49;61.10
63181;BME280;49273;37.772;-122.432;2022-11-30T07:27:07;101118.34;;;10.41;61.45
63181;BME280;49273;37.772;-122.432;2022-11-30T07:29:35;101119.11;;;10.34;61.62
63181;BME280;49273;37.772;-122.432;2022-11-30T07:32:03;101122.02;;;10.19;62.23
63181;BME280;49273;37.772;-122.432;2022-11-30T07:34:31;101122.07;;;10.16;62.33
63181;BME280;49273;37.772;-122.432;2022-11-30T07:36:59;101123.21;;;10.09;62.46
63181;BME280;49273;37.772;-122.432;2022-11-30T07:39:27;101119.72;;;10.26;61.71
63181;BME280;49273;37.772;-122.432;2022-11-30T07:41:55;101123.07;;;10.29;61.74
63181;BME280;49273;37.772;-122.432;2022-11-30T07:44:23;101120.30;;;10.17;62.02
63181;BME280;49273;37.772;-122.432;2022-11-30T07:46:51;101121.75;;;10.04;62.62
63181;BME280;49273;37.772;-122.432;2022-11-30T07:49:19;101124.54;;;9.96;63.19
63181;BME280;49273;37.772;-122.432;2022-11-30T07:51:47;101126.19;;;10.04;63.38
63181;BME280;49273;37.772;-122.432;2022-11-30T07:54:15;101120.21;;;10.00;63.37
63181;BME280;49273;37.772;-122.432;2022-11-30T07:56:43;101119.99;;;10.00;63.80
63181;BME280;49273;37.772;-122.432;2022-11-30T07:59:11;101117.81;;;10.07;64.00
63181;BME280;49273;37.772;-122.432;2022-11-30T08:01:40;101116.58;;;10.12;64.20
63181;BME280;49273;37.772;-122.432;2022-11-30T08:04:08;101118.10;;;10.28;63.52
63181;BME280;49273;37.772;-122.432;2022-11-30T08:06:36;101117.11;;;10.13;64.07
63181;BME280;49273;37.772;-122.432;2022-11-30T08:09:04;101116.40;;;10.09;64.12
63181;BME280;49273;37.772;-122.432;2022-11-30T08:11:33;101115.95;;;10.17;64.38
63181;BME280;49273;37.772;-122.432;2022-11-30T08:14:03;101111.71;;;10.22;64.26
63181;BME280;49273;37.772;-122.432;2022-11-30T08:16:35;101106.16;;;10.08;64.55
63181;BME280;49273;37.772;-122.432;2022-11-30T08:19:03;101103.26;;;10.15;64.48
63181;BME280;49273;37.772;-122.432;2022-11-30T08:21:32;101101.42;;;10.06;65.25
63181;BME280;49273;37.772;-122.432;2022-11-30T08:23:59;101097.41;;;10.02;64.86
63181;BME280;49273;37.772;-122.432;2022-11-30T08:26:30;101096.95;;;10.15;64.67
63181;BME280;49273;37.772;-122.432;2022-11-30T08:29:00;101093.27;;;10.18;64.84
63181;BME280;49273;37.772;-122.432;2022-11-30T08:31:30;101090.46;;;10.30;64.63
63181;BME280;49273;37.772;-122.432;2022-11-30T08:34:03;101091.84;;;10.22;65.01
63181;BME280;49273;37.772;-122.432;2022-11-30T08:36:32;101091.57;;;10.18;65.53
63181;BME280;49273;37.772;-122.432;2022-11-30T08:39:02;101088.77;;;10.07;66.00
63181;BME280;49273;37.772;-122.432;2022-11-30T08:41:30;101085.05;;;10.06;66.14
63181;BME280;49273;37.772;-122.432;2022-11-30T08:43:59;101085.70;;;10.04;65.67
63181;BME280;49273;37.772;-122.432;2022-11-30T08:46:28;101088.13;;;10.02;65.76
63181;BME280;49273;37.772;-122.432;2022-11-30T08:48:56;101087.28;;;9.97;65.84
63181;BME280;49273;37.772;-122.432;2022-11-30T08:51:24;101084.99;;;9.76;66.29
63181;BME280;49273;37.772;-122.432;2022-11-30T08:53:52;101085.31;;;9.73;66.82
63181;BME280;49273;37.772;-122.432;2022-11-30T08:56:21;101084.06;;;9.88;66.68
63181;BME280;49273;37.772;-122.432;2022-11-30T08:58:50;101083.57;;;9.80;67.29
63181;BME280;49273;37.772;-122.432;2022-11-30T09:01:19;101085.85;;;9.85;67.22
63181;BME280;49273;37.772;-122.432;2022-11-30T09:03:50;101085.43;;;9.64;67.86
63181;BME280;49273;37.772;-122.432;2022-11-30T09:06:19;101084.62;;;9.67;67.53
63181;BME280;49273;37.772;-122.432;2022-11-30T09:08:49;101083.56;;;9.80;67.44
63181;BME280;49273;37.772;-122.432;2022-11-30T09:11:19;101081.67;;;9.75;67.87
63181;BME280;49273;37.772;-122.432;2022-11-30T09:13:48;101079.25;;;9.71;68.39
63181;BME280;49273;37.772;-122.432;2022-11-30T09:16:18;101080.56;;;9.80;68.11
63181;BME280;49273;37.772;-122.432;2022-11-30T09:18:49;101073.48;;;9.83;68.12
63181;BME280;49273;37.772;-122.432;2022-11-30T09:21:20;101074.86;;;9.75;68.30
63181;BME280;49273;37.772;-122.432;2022-11-30T09:23:50;101071.49;;;9.84;68.44
63181;BME280;49273;37.772;-122.432;2022-11-30T09:26:19;101068.81;;;9.84;68.64
63181;BME280;49273;37.772;-122.432;2022-11-30T09:28:48;101066.80;;;9.79;69.02
63181;BME280;49273;37.772;-122.432;2022-11-30T09:31:18;101062.74;;;9.67;69.37
63181;BME280;49273;37.772;-122.432;2022-11-30T09:33:46;101058.81;;;9.65;69.48
63181;BME280;49273;37.772;-122.432;2022-11-30T09:36:16;101055.10;;;9.56;69.92
63181;BME280;49273;37.772;-122.432;2022-11-30T09:38:45;101047.54;;;9.39;70.91
63181;BME280;49273;37.772;-122.432;2022-11-30T09:41:32;101044.87;;;9.46;71.24
63181;BME280;49273;37.772;-122.432;2022-11-30T09:44:12;101047.87;;;9.51;71.15
63181;BME280;49273;37.772;-122.432;2022-11-30T09:46:47;101042.47;;;9.37;71.78
63181;BME280;49273;37.772;-122.432;2022-11-30T09:49:20;101046.92;;;9.65;70.90
63181;BME280;49273;37.772;-122.432;2022-11-30T09:51:50;101051.06;;;9.71;70.71
63181;BME280;49273;37.772;-122.432;2022-11-30T09:54:20;101052.09;;;9.64;70.39
63181;BME280;49273;37.772;-122.432;2022-11-30T09:56:51;101052.45;;;9.70;70.44
63181;BME280;49273;37.772;-122.432;2022-11-30T09:59:20;101049.67;;;9.68;70.79
63181;BME280;49273;37.772;-122.432;2022-11-30T10:01:49;101046.84;;;9.71;70.74
63181;BME280;49273;37.772;-122.432;2022-11-30T10:04:21;101043.37;;;9.67;70.97
63181;BME280;49273;37.772;-122.432;2022-11-30T10:07:00;101042.96;;;9.74;71.47
63181;BME280;49273;37.772;-122.432;2022-11-30T10:09:40;101043.72;;;9.81;70.94
63181;BME280;49273;37.772;-122.432;2022-11-30T10:12:16;101041.35;;;9.67;71.21
63181;BME280;49273;37.772;-122.432;2022-11-30T10:15:26;101041.13;;;9.67;71.56
63181;BME280;49273;37.772;-122.432;2022-11-30T10:18:06;101038.53;;;9.61;71.86
63181;BME280;49273;37.772;-122.432;2022-11-30T10:20:50;101035.42;;;9.63;71.46
63181;BME280;49273;37.772;-122.432;2022-11-30T10:23:28;101034.13;;;9.81;70.67
63181;BME280;49273;37.772;-122.432;2022-11-30T10:26:05;101033.69;;;9.70;70.53
63181;BME280;49273;37.772;-122.432;2022-11-30T10:28:46;101033.75;;;9.53;70.55
63181;BME280;49273;37.772;-122.432;2022-11-30T10:31:18;101028.97;;;9.34;70.74
63181;BME280;49273;37.772;-122.432;2022-11-30T10:33:48;101023.26;;;9.30;71.39
63181;BME280;49273;37.772;-122.432;2022-11-30T10:36:23;101018.55;;;9.46;70.72
63181;BME280;49273;37.772;-122.432;2022-11-30T10:38:56;101014.93;;;9.17;71.69
63181;BME280;49273;37.772;-122.432;2022-11-30T10:41:29;101011.04;;;9.34;71.64
63181;BME280;49273;37.772;-122.432;2022-11-30T10:44:02;101014.55;;;9.51;70.97
63181;BME280;49273;37.772;-122.432;2022-11-30T10:46:35;101016.45;;;9.44;70.90
63181;BME280;49273;37.772;-122.432;2022-11-30T10:49:05;101020.20;;;9.46;70.88
63181;BME280;49273;37.772;-122.432;2022-11-30T10:51:36;101026.37;;;9.44;70.86
63181;BME280;49273;37.772;-122.432;2022-11-30T10:54:13;101022.94;;;9.38;71.24
63181;BME280;49273;37.772;-122.432;2022-11-30T10:56:42;101022.57;;;9.29;72.03
63181;BME280;49273;37.772;-122.432;2022-11-30T10:59:16;101021.29;;;9.34;71.86
63181;BME280;49273;37.772;-122.432;2022-11-30T11:01:46;101021.81;;;9.37;71.53
63181;BME280;49273;37.772;-122.432;2022-11-30T11:04:17;101019.65;;;9.42;71.52
63181;BME280;49273;37.772;-122.432;2022-11-30T11:06:46;101018.70;;;9.40;71.52
63181;BME280;49273;37.772;-122.432;2022-11-30T11:09:49;101012.57;;;9.43;71.37
63181;BME280;49273;37.772;-122.432;2022-11-30T11:12:19;101017.77;;;9.27;71.85
63181;BME280;49273;37.772;-122.432;2022-11-30T11:14:48;101019.96;;;9.31;72.09
63181;BME280;49273;37.772;-122.432;2022-11-30T11:17:23;101020.97;;;9.42;71.74
63181;BME280;49273;37.772;-122.432;2022-11-30T11:19:51;101023.70;;;9.26;72.43
63181;BME280;49273;37.772;-122.432;2022-11-30T11:22:21;101025.18;;;9.25;72.71
63181;BME280;49273;37.772;-122.432;2022-11-30T11:24:52;101026.13;;;9.28;72.57
63181;BME280;49273;37.772;-122.432;2022-11-30T11:27:24;101023.29;;;9.36;72.09
63181;BME280;49273;37.772;-122.432;2022-11-30T11:30:01;101025.24;;;9.38;72.38
63181;BME280;49273;37.772;-122.432;2022-11-30T11:32:31;101027.33;;;9.45;72.19
63181;BME280;49273;37.772;-122.432;2022-11-30T11:34:59;101031.60;;;9.46;72.44
63181;BME280;49273;37.772;-122.432;2022-11-30T11:37:28;101032.98;;;9.41;72.25
63181;BME280;49273;37.772;-122.432;2022-11-30T11:39:59;101033.75;;;9.28;72.90
63181;BME280;49273;37.772;-122.432;2022-11-30T11:42:31;101033.24;;;9.21;73.18
63181;BME280;49273;37.772;-122.432;2022-11-30T11:45:02;101033.18;;;9.30;72.25
63181;BME280;49273;37.772;-122.432;2022-11-30T11:47:38;101030.91;;;9.23;72.50
63181;BME280;49273;37.772;-122.432;2022-11-30T11:50:25;101030.38;;;9.17;72.76
63181;BME280;49273;37.772;-122.432;2022-11-30T11:53:46;101025.35;;;9.03;73.60
63181;BME280;49273;37.772;-122.432;2022-11-30T11:56:19;101023.88;;;9.16;73.35
63181;BME280;49273;37.772;-122.432;2022-11-30T11:58:53;101027.66;;;9.20;73.44
63181;BME280;49273;37.772;-122.432;2022-11-30T12:01:35;101020.50;;;9.31;72.52
63181;BME280;49273;37.772;-122.432;2022-11-30T12:04:21;101015.24;;;9.36;73.25
63181;BME280;49273;37.772;-122.432;2022-11-30T12:06:54;101012.49;;;9.24;72.74
63181;BME280;49273;37.772;-122.432;2022-11-30T12:09:28;101006.64;;;9.14;73.10
63181;BME280;49273;37.772;-122.432;2022-11-30T12:11:57;101000.73;;;9.22;72.30
63181;BME280;49273;37.772;-122.432;2022-11-30T12:14:25;100998.77;;;8.90;74.02
63181;BME280;49273;37.772;-122.432;2022-11-30T12:17:04;100998.89;;;9.07;73.69
63181;BME280;49273;37.772;-122.432;2022-11-30T12:19:41;100997.19;;;9.07;73.17
63181;BME280;49273;37.772;-122.432;2022-11-30T12:22:25;100995.66;;;8.98;73.64
63181;BME280;49273;37.772;-122.432;2022-11-30T12:25:09;100995.44;;;9.07;73.35
63181;BME280;49273;37.772;-122.432;2022-11-30T12:27:46;100996.89;;;9.09;72.97
63181;BME280;49273;37.772;-122.432;2022-11-30T12:30:21;100993.95;;;9.12;72.77
63181;BME280;49273;37.772;-122.432;2022-11-30T12:33:09;100991.51;;;9.06;72.65
63181;BME280;49273;37.772;-122.432;2022-11-30T12:35:47;100992.63;;;9.13;72.33
63181;BME280;49273;37.772;-122.432;2022-11-30T12:38:29;100989.25;;;8.97;72.95
63181;BME280;49273;37.772;-122.432;2022-11-30T12:41:09;100987.71;;;8.93;73.63